sensor_id;sensor_type;location;lat;lon;timestamp;pressure;altitude;pressure_sealevel;temperature;humidity
17607;BME280;8922;52.240;20.980;2023-02-28T00:00:05;101735.53;;;-1.13;54.73
17607;BME280;8922;52.240;20.980;2023-02-28T00:02:37;101738.94;;;-1.13;54.79
17607;BME280;8922;52.240;20.980;2023-02-28T00:05:08;101739.88;;;-1.11;55.07
17607;BME280;8922;52.240;20.980;2023-02-28T00:07:39;101739.13;;;-1.10;55.10
17607;BME280;8922;52.240;20.980;2023-02-28T00:10:11;101743.47;;;-1.07;54.91
17607;BME280;8922;52.240;20.980;2023-02-28T00:12:40;101737.75;;;-1.05;55.24
17607;BME280;8922;52.240;20.980;2023-02-28T00:15:10;101745.34;;;-1.05;54.88
17607;BME280;8922;52.240;20.980;2023-02-28T00:17:39;101746.31;;;-1.03;55.03
17607;BME280;8922;52.240;20.980;2023-02-28T00:20:10;101744.88;;;-0.99;55.06
17607;BME280;8922;52.240;20.980;2023-02-28T00:22:44;101741.63;;;-0.97;54.81
17607;BME280;8922;52.240;20.980;2023-02-28T00:25:16;101743.47;;;-0.94;55.17
17607;BME280;8922;52.240;20.980;2023-02-28T00:27:45;101745.34;;;-0.91;55.03
17607;BME280;8922;52.240;20.980;2023-02-28T00:30:17;101751.47;;;-0.88;55.23
17607;BME280;8922;52.240;20.980;2023-02-28T00:32:47;101743.00;;;-0.88;54.71
17607;BME280;8922;52.240;20.980;2023-02-28T00:35:16;101751.63;;;-0.85;55.04
17607;BME280;8922;52.240;20.980;2023-02-28T00:37:48;101755.94;;;-0.84;54.74
17607;BME280;8922;52.240;20.980;2023-02-28T00:40:17;101748.34;;;-0.84;54.44
17607;BME280;8922;52.240;20.980;2023-02-28T00:42:46;101757.59;;;-0.84;55.10
17607;BME280;8922;52.240;20.980;2023-02-28T00:45:15;101754.06;;;-0.86;55.36
17607;BME280;8922;52.240;20.980;2023-02-28T00:47:44;101749.81;;;-0.87;54.99
17607;BME280;8922;52.240;20.980;2023-02-28T00:50:13;101743.75;;;-0.89;55.10
17607;BME280;8922;52.240;20.980;2023-02-28T00:52:42;101740.34;;;-0.90;55.29
17607;BME280;8922;52.240;20.980;2023-02-28T00:55:13;101745.63;;;-0.87;55.47
17607;BME280;8922;52.240;20.980;2023-02-28T00:57:42;101740.63;;;-0.85;55.11
17607;BME280;8922;52.240;20.980;2023-02-28T01:00:13;101743.16;;;-0.85;55.56
17607;BME280;8922;52.240;20.980;2023-02-28T01:02:41;101739.97;;;-0.83;55.49
17607;BME280;8922;52.240;20.980;2023-02-28T01:05:10;101742.56;;;-0.81;54.96
17607;BME280;8922;52.240;20.980;2023-02-28T01:07:38;101740.81;;;-0.82;55.42
17607;BME280;8922;52.240;20.980;2023-02-28T01:10:09;101740.16;;;-0.80;55.17
17607;BME280;8922;52.240;20.980;2023-02-28T01:12:40;101744.53;;;-0.77;55.33
17607;BME280;8922;52.240;20.980;2023-02-28T01:15:10;101740.22;;;-0.78;55.30
17607;BME280;8922;52.240;20.980;2023-02-28T01:17:39;101742.75;;;-0.78;55.27
17607;BME280;8922;52.240;20.980;2023-02-28T01:20:10;101743.56;;;-0.79;55.50
17607;BME280;8922;52.240;20.980;2023-02-28T01:22:39;101738.50;;;-0.79;55.32
17607;BME280;8922;52.240;20.980;2023-02-28T01:25:08;101740.16;;;-0.80;54.79
17607;BME280;8922;52.240;20.980;2023-02-28T01:27:37;101737.44;;;-0.83;54.50
17607;BME280;8922;52.240;20.980;2023-02-28T01:30:10;101734.03;;;-0.83;54.81
17607;BME280;8922;52.240;20.980;2023-02-28T01:32:39;101745.88;;;-0.82;55.09
17607;BME280;8922;52.240;20.980;2023-02-28T01:35:08;101750.75;;;-0.85;55.08
17607;BME280;8922;52.240;20.980;2023-02-28T01:37:37;101745.53;;;-0.88;55.19
17607;BME280;8922;52.240;20.980;2023-02-28T01:40:08;101748.81;;;-0.89;55.42
17607;BME280;8922;52.240;20.980;2023-02-28T01:42:37;101749.69;;;-0.89;55.18
17607;BME280;8922;52.240;20.980;2023-02-28T01:45:21;101745.41;;;-0.90;54.90
17607;BME280;8922;52.240;20.980;2023-02-28T01:47:55;101750.59;;;-0.88;54.98
17607;BME280;8922;52.240;20.980;2023-02-28T01:50:28;101754.75;;;-0.89;54.89
17607;BME280;8922;52.240;20.980;2023-02-28T01:53:03;101747.94;;;-0.90;54.66
17607;BME280;8922;52.240;20.980;2023-02-28T01:55:33;101748.81;;;-0.89;54.53
17607;BME280;8922;52.240;20.980;2023-02-28T01:58:05;101752.34;;;-0.87;54.64
17607;BME280;8922;52.240;20.980;2023-02-28T02:00:37;101751.34;;;-0.89;54.51
17607;BME280;8922;52.240;20.980;2023-02-28T02:03:11;101762.34;;;-0.89;55.03
17607;BME280;8922;52.240;20.980;2023-02-28T02:05:43;101750.59;;;-0.88;54.65
17607;BME280;8922;52.240;20.980;2023-02-28T02:08:18;101743.75;;;-0.89;54.27
17607;BME280;8922;52.240;20.980;2023-02-28T02:10:50;101748.81;;;-0.89;54.46
17607;BME280;8922;52.240;20.980;2023-02-28T02:16:37;101747.06;;;-0.90;54.69
17607;BME280;8922;52.240;20.980;2023-02-28T02:22:27;101751.25;;;-0.91;55.50
17607;BME280;8922;52.240;20.980;2023-02-28T02:25:25;101755.25;;;-0.94;55.09
17607;BME280;8922;52.240;20.980;2023-02-28T02:37:31;101752.25;;;-1.02;55.34
17607;BME280;8922;52.240;20.980;2023-02-28T02:40:13;101755.47;;;-1.05;55.24
17607;BME280;8922;52.240;20.980;2023-02-28T02:42:50;101745.25;;;-1.06;55.15
17607;BME280;8922;52.240;20.980;2023-02-28T02:45:25;101750.31;;;-1.06;55.94
17607;BME280;8922;52.240;20.980;2023-02-28T02:47:56;101746.00;;;-1.07;55.88
17607;BME280;8922;52.240;20.980;2023-02-28T02:50:34;101759.56;;;-1.07;55.76
17607;BME280;8922;52.240;20.980;2023-02-28T02:53:06;101760.31;;;-1.08;55.81
17607;BME280;8922;52.240;20.980;2023-02-28T02:55:41;101761.09;;;-1.09;56.13
17607;BME280;8922;52.240;20.980;2023-02-28T02:58:14;101761.91;;;-1.10;56.13
17607;BME280;8922;52.240;20.980;2023-02-28T03:00:48;101764.63;;;-1.07;56.12
17607;BME280;8922;52.240;20.980;2023-02-28T03:03:20;101764.63;;;-1.07;56.58
17607;BME280;8922;52.240;20.980;2023-02-28T03:05:59;101767.81;;;-1.09;56.33
17607;BME280;8922;52.240;20.980;2023-02-28T03:08:33;101767.16;;;-1.07;56.61
17607;BME280;8922;52.240;20.980;2023-02-28T03:11:04;101758.56;;;-1.09;57.59
17607;BME280;8922;52.240;20.980;2023-02-28T03:13:54;101761.09;;;-1.09;56.95
17607;BME280;8922;52.240;20.980;2023-02-28T03:16:40;101761.78;;;-1.11;57.69
17607;BME280;8922;52.240;20.980;2023-02-28T03:19:31;101764.22;;;-1.13;57.41
17607;BME280;8922;52.240;20.980;2023-02-28T03:25:29;101764.03;;;-1.16;58.04
17607;BME280;8922;52.240;20.980;2023-02-28T03:28:07;101761.41;;;-1.17;58.47
17607;BME280;8922;52.240;20.980;2023-02-28T03:30:45;101763.81;;;-1.19;58.38
17607;BME280;8922;52.240;20.980;2023-02-28T03:33:18;101761.22;;;-1.20;58.09
17607;BME280;8922;52.240;20.980;2023-02-28T03:35:54;101762.88;;;-1.21;58.54
17607;BME280;8922;52.240;20.980;2023-02-28T03:38:30;101767.94;;;-1.21;58.18
17607;BME280;8922;52.240;20.980;2023-02-28T03:41:07;101766.94;;;-1.23;58.87
17607;BME280;8922;52.240;20.980;2023-02-28T03:43:41;101765.41;;;-1.21;58.68
17607;BME280;8922;52.240;20.980;2023-02-28T03:46:14;101771.34;;;-1.20;58.90
17607;BME280;8922;52.240;20.980;2023-02-28T03:48:53;101780.75;;;-1.18;58.66
17607;BME280;8922;52.240;20.980;2023-02-28T03:51:25;101775.69;;;-1.18;58.85
17607;BME280;8922;52.240;20.980;2023-02-28T03:54:02;101771.53;;;-1.17;59.03
17607;BME280;8922;52.240;20.980;2023-02-28T03:56:39;101775.00;;;-1.15;59.02
17607;BME280;8922;52.240;20.980;2023-02-28T03:59:14;101773.34;;;-1.15;58.90
17607;BME280;8922;52.240;20.980;2023-02-28T04:01:47;101775.13;;;-1.14;58.79
17607;BME280;8922;52.240;20.980;2023-02-28T04:04:17;101775.00;;;-1.15;58.82
17607;BME280;8922;52.240;20.980;2023-02-28T04:06:49;101781.72;;;-1.16;59.09
17607;BME280;8922;52.240;20.980;2023-02-28T04:09:19;101780.00;;;-1.17;59.18
17607;BME280;8922;52.240;20.980;2023-02-28T04:11:52;101781.72;;;-1.16;59.27
17607;BME280;8922;52.240;20.980;2023-02-28T04:14:23;101776.59;;;-1.17;59.43
17607;BME280;8922;52.240;20.980;2023-02-28T04:16:54;101776.66;;;-1.16;58.97
17607;BME280;8922;52.240;20.980;2023-02-28T04:19:22;101779.00;;;-1.19;59.25
17607;BME280;8922;52.240;20.980;2023-02-28T04:21:52;101775.53;;;-1.21;59.25
17607;BME280;8922;52.240;20.980;2023-02-28T04:24:25;101778.91;;;-1.20;59.48
17607;BME280;8922;52.240;20.980;2023-02-28T04:26:57;101779.66;;;-1.22;59.72
17607;BME280;8922;52.240;20.980;2023-02-28T04:29:28;101778.81;;;-1.22;59.49
17607;BME280;8922;52.240;20.980;2023-02-28T04:31:57;101778.81;;;-1.22;59.82
17607;BME280;8922;52.240;20.980;2023-02-28T04:34:27;101783.00;;;-1.23;59.54
17607;BME280;8922;52.240;20.980;2023-02-28T04:36:56;101774.44;;;-1.25;60.06
17607;BME280;8922;52.240;20.980;2023-02-28T04:39:41;101779.50;;;-1.25;59.41
17607;BME280;8922;52.240;20.980;2023-02-28T04:42:11;101781.25;;;-1.24;59.67
17607;BME280;8922;52.240;20.980;2023-02-28T04:44:40;101787.19;;;-1.23;60.06
17607;BME280;8922;52.240;20.980;2023-02-28T04:47:08;101777.84;;;-1.24;59.77
17607;BME280;8922;52.240;20.980;2023-02-28T04:49:37;101780.47;;;-1.23;60.28
17607;BME280;8922;52.240;20.980;2023-02-28T04:52:07;101789.03;;;-1.20;59.42
17607;BME280;8922;52.240;20.980;2023-02-28T04:54:41;101786.59;;;-1.19;59.76
17607;BME280;8922;52.240;20.980;2023-02-28T04:57:10;101779.00;;;-1.19;59.83
17607;BME280;8922;52.240;20.980;2023-02-28T04:59:39;101786.72;;;-1.17;60.13
17607;BME280;8922;52.240;20.980;2023-02-28T05:02:07;101784.94;;;-1.18;60.71
17607;BME280;8922;52.240;20.980;2023-02-28T05:04:36;101790.84;;;-1.18;60.62
17607;BME280;8922;52.240;20.980;2023-02-28T05:07:05;101789.13;;;-1.19;60.55
17607;BME280;8922;52.240;20.980;2023-02-28T05:09:34;101789.13;;;-1.19;60.61
17607;BME280;8922;52.240;20.980;2023-02-28T05:12:04;101792.50;;;-1.18;60.94
17607;BME280;8922;52.240;20.980;2023-02-28T05:14:32;101797.50;;;-1.20;60.76
17607;BME280;8922;52.240;20.980;2023-02-28T05:17:01;101804.28;;;-1.19;61.19
17607;BME280;8922;52.240;20.980;2023-02-28T05:19:29;101806.72;;;-1.20;61.30
17607;BME280;8922;52.240;20.980;2023-02-28T05:21:58;101816.94;;;-1.19;61.65
17607;BME280;8922;52.240;20.980;2023-02-28T05:24:26;101816.72;;;-1.22;61.48
17607;BME280;8922;52.240;20.980;2023-02-28T05:26:55;101823.56;;;-1.21;61.25
17607;BME280;8922;52.240;20.980;2023-02-28T05:29:25;101818.50;;;-1.21;61.02
17607;BME280;8922;52.240;20.980;2023-02-28T05:31:54;101819.25;;;-1.22;60.80
17607;BME280;8922;52.240;20.980;2023-02-28T05:34:22;101818.50;;;-1.21;61.20
17607;BME280;8922;52.240;20.980;2023-02-28T05:36:51;101826.97;;;-1.20;60.38
17607;BME280;8922;52.240;20.980;2023-02-28T05:39:20;101832.91;;;-1.20;60.90
17607;BME280;8922;52.240;20.980;2023-02-28T05:41:49;101839.69;;;-1.19;60.48
17607;BME280;8922;52.240;20.980;2023-02-28T05:44:17;101828.03;;;-1.17;60.34
17607;BME280;8922;52.240;20.980;2023-02-28T05:46:47;101835.84;;;-1.14;60.44
17607;BME280;8922;52.240;20.980;2023-02-28T05:49:16;101836.78;;;-1.12;60.04
17607;BME280;8922;52.240;20.980;2023-02-28T05:51:44;101832.59;;;-1.11;60.08
17607;BME280;8922;52.240;20.980;2023-02-28T05:54:13;101839.59;;;-1.07;60.02
17607;BME280;8922;52.240;20.980;2023-02-28T05:56:41;101843.31;;;-1.02;60.04
17607;BME280;8922;52.240;20.980;2023-02-28T05:59:11;101849.66;;;-0.95;59.72
17607;BME280;8922;52.240;20.980;2023-02-28T06:01:42;101845.75;;;-0.90;60.15
17607;BME280;8922;52.240;20.980;2023-02-28T06:04:18;101857.03;;;-0.72;59.70
17607;BME280;8922;52.240;20.980;2023-02-28T06:06:58;101849.34;;;-0.47;59.86
17607;BME280;8922;52.240;20.980;2023-02-28T06:09:27;101854.66;;;-0.29;58.80
17607;BME280;8922;52.240;20.980;2023-02-28T06:11:58;101853.25;;;-0.24;58.50
17607;BME280;8922;52.240;20.980;2023-02-28T06:14:27;101849.88;;;-0.25;58.33
17607;BME280;8922;52.240;20.980;2023-02-28T06:16:55;101860.66;;;-0.27;58.38
17607;BME280;8922;52.240;20.980;2023-02-28T06:19:27;101852.13;;;-0.29;58.73
17607;BME280;8922;52.240;20.980;2023-02-28T06:21:57;101851.94;;;-0.32;58.60
17607;BME280;8922;52.240;20.980;2023-02-28T06:24:30;101857.66;;;-0.35;58.85
17607;BME280;8922;52.240;20.980;2023-02-28T06:26:59;101858.53;;;-0.34;58.95
17607;BME280;8922;52.240;20.980;2023-02-28T06:29:32;101856.88;;;-0.34;59.03
17607;BME280;8922;52.240;20.980;2023-02-28T06:32:01;101857.66;;;-0.35;58.80
17607;BME280;8922;52.240;20.980;2023-02-28T06:34:32;101850.16;;;-0.33;58.58
17607;BME280;8922;52.240;20.980;2023-02-28T06:37:01;101852.66;;;-0.20;57.93
17607;BME280;8922;52.240;20.980;2023-02-28T06:39:30;101847.28;;;-0.11;57.63
17607;BME280;8922;52.240;20.980;2023-02-28T06:41:59;101839.97;;;-0.07;57.01
17607;BME280;8922;52.240;20.980;2023-02-28T06:44:27;101843.66;;;-0.02;57.18
17607;BME280;8922;52.240;20.980;2023-02-28T06:47:03;101833.69;;;0.02;56.76
17607;BME280;8922;52.240;20.980;2023-02-28T06:49:35;101828.81;;;0.05;57.00
17607;BME280;8922;52.240;20.980;2023-02-28T06:52:05;101825.00;;;0.11;57.17
17607;BME280;8922;52.240;20.980;2023-02-28T06:54:33;101818.28;;;0.27;56.72
17607;BME280;8922;52.240;20.980;2023-02-28T06:57:02;101825.03;;;0.41;56.24
17607;BME280;8922;52.240;20.980;2023-02-28T06:59:32;101816.63;;;0.42;55.31
17607;BME280;8922;52.240;20.980;2023-02-28T07:02:02;101818.63;;;0.47;55.46
17607;BME280;8922;52.240;20.980;2023-02-28T07:04:35;101819.97;;;0.56;54.89
17607;BME280;8922;52.240;20.980;2023-02-28T07:07:04;101816.81;;;0.60;54.21
17607;BME280;8922;52.240;20.980;2023-02-28T07:09:32;101815.41;;;0.65;54.36
17607;BME280;8922;52.240;20.980;2023-02-28T07:12:01;101819.63;;;0.79;53.51
17607;BME280;8922;52.240;20.980;2023-02-28T07:14:30;101823.25;;;0.99;52.94
17607;BME280;8922;52.240;20.980;2023-02-28T07:16:59;101820.25;;;1.21;52.55
17607;BME280;8922;52.240;20.980;2023-02-28T07:19:27;101819.63;;;1.56;51.69
17607;BME280;8922;52.240;20.980;2023-02-28T07:21:57;101819.88;;;1.93;50.13
17607;BME280;8922;52.240;20.980;2023-02-28T07:24:27;101812.16;;;2.08;49.83
17607;BME280;8922;52.240;20.980;2023-02-28T07:26:56;101819.88;;;2.10;48.29
17607;BME280;8922;52.240;20.980;2023-02-28T07:29:26;101818.13;;;2.09;48.04
17607;BME280;8922;52.240;20.980;2023-02-28T07:31:56;101815.09;;;2.16;48.03
17607;BME280;8922;52.240;20.980;2023-02-28T07:34:25;101810.41;;;2.24;47.87
17607;BME280;8922;52.240;20.980;2023-02-28T07:36:55;101815.53;;;2.41;48.12
17607;BME280;8922;52.240;20.980;2023-02-28T07:39:25;101806.63;;;2.50;47.00
17607;BME280;8922;52.240;20.980;2023-02-28T07:41:54;101809.41;;;2.54;45.64
17607;BME280;8922;52.240;20.980;2023-02-28T07:44:22;101805.94;;;2.70;45.64
17607;BME280;8922;52.240;20.980;2023-02-28T07:46:51;101806.31;;;2.96;46.18
17607;BME280;8922;52.240;20.980;2023-02-28T07:49:20;101802.91;;;3.13;44.68
17607;BME280;8922;52.240;20.980;2023-02-28T07:51:48;101813.00;;;3.11;43.40
17607;BME280;8922;52.240;20.980;2023-02-28T07:54:21;101815.84;;;3.00;43.58
17607;BME280;8922;52.240;20.980;2023-02-28T07:56:51;101814.38;;;3.05;43.95
17607;BME280;8922;52.240;20.980;2023-02-28T07:59:20;101818.44;;;3.19;43.28
17607;BME280;8922;52.240;20.980;2023-02-28T08:01:48;101820.03;;;3.35;42.41
17607;BME280;8922;52.240;20.980;2023-02-28T08:04:19;101810.72;;;3.35;42.08
17607;BME280;8922;52.240;20.980;2023-02-28T08:06:48;101815.06;;;3.38;42.58
17607;BME280;8922;52.240;20.980;2023-02-28T08:09:19;101821.53;;;3.49;42.68
17607;BME280;8922;52.240;20.980;2023-02-28T08:11:47;101820.16;;;3.56;42.15
17607;BME280;8922;52.240;20.980;2023-02-28T08:14:17;101815.19;;;3.59;41.59
17607;BME280;8922;52.240;20.980;2023-02-28T08:16:46;101813.59;;;3.61;41.46
17607;BME280;8922;52.240;20.980;2023-02-28T08:19:14;101811.97;;;3.63;41.79
17607;BME280;8922;52.240;20.980;2023-02-28T08:21:43;101814.28;;;3.76;41.34
17607;BME280;8922;52.240;20.980;2023-02-28T08:24:12;101806.75;;;3.99;41.44
17607;BME280;8922;52.240;20.980;2023-02-28T08:26:40;101812.25;;;4.27;40.37
17607;BME280;8922;52.240;20.980;2023-02-28T08:29:09;101803.69;;;4.46;39.91
17607;BME280;8922;52.240;20.980;2023-02-28T08:31:40;101800.75;;;4.58;40.30
17607;BME280;8922;52.240;20.980;2023-02-28T08:34:11;101804.34;;;4.63;39.76
17607;BME280;8922;52.240;20.980;2023-02-28T08:36:41;101808.09;;;4.71;39.35
17607;BME280;8922;52.240;20.980;2023-02-28T08:39:10;101814.53;;;4.82;39.75
17607;BME280;8922;52.240;20.980;2023-02-28T08:41:39;101809.78;;;4.92;38.75
17607;BME280;8922;52.240;20.980;2023-02-28T08:44:08;101811.72;;;4.97;38.49
17607;BME280;8922;52.240;20.980;2023-02-28T08:46:36;101807.34;;;4.95;38.36
17607;BME280;8922;52.240;20.980;2023-02-28T08:49:09;101814.94;;;4.93;38.67
17607;BME280;8922;52.240;20.980;2023-02-28T08:51:39;101813.50;;;5.00;38.25
17607;BME280;8922;52.240;20.980;2023-02-28T08:54:09;101813.91;;;5.11;38.24
17607;BME280;8922;52.240;20.980;2023-02-28T08:56:40;101813.88;;;5.31;38.15
17607;BME280;8922;52.240;20.980;2023-02-28T08:59:09;101816.56;;;5.57;37.76
17607;BME280;8922;52.240;20.980;2023-02-28T09:01:38;101812.00;;;5.95;37.86
17607;BME280;8922;52.240;20.980;2023-02-28T09:04:10;101817.69;;;6.36;37.27
17607;BME280;8922;52.240;20.980;2023-02-28T09:06:43;101810.69;;;6.56;36.82
17607;BME280;8922;52.240;20.980;2023-02-28T09:09:12;101813.41;;;6.87;38.85
17607;BME280;8922;52.240;20.980;2023-02-28T09:11:41;101807.91;;;7.59;36.49
17607;BME280;8922;52.240;20.980;2023-02-28T09:14:09;101808.06;;;9.74;35.43
17607;BME280;8922;52.240;20.980;2023-02-28T09:16:38;101802.09;;;12.86;29.16
17607;BME280;8922;52.240;20.980;2023-02-28T09:19:12;101801.34;;;16.32;24.15
17607;BME280;8922;52.240;20.980;2023-02-28T09:21:41;101797.06;;;19.49;20.68
17607;BME280;8922;52.240;20.980;2023-02-28T09:24:09;101805.50;;;22.29;17.24
17607;BME280;8922;52.240;20.980;2023-02-28T09:26:41;101801.91;;;24.48;14.42
17607;BME280;8922;52.240;20.980;2023-02-28T09:29:22;101795.28;;;25.59;13.21
17607;BME280;8922;52.240;20.980;2023-02-28T09:31:51;101798.13;;;25.73;13.73
17607;BME280;8922;52.240;20.980;2023-02-28T09:34:21;101791.47;;;26.38;12.75
17607;BME280;8922;52.240;20.980;2023-02-28T09:36:49;101786.22;;;26.56;12.30
17607;BME280;8922;52.240;20.980;2023-02-28T09:39:22;101785.53;;;27.20;11.92
17607;BME280;8922;52.240;20.980;2023-02-28T09:41:55;101782.00;;;28.46;11.33
17607;BME280;8922;52.240;20.980;2023-02-28T09:44:33;101786.19;;;29.23;10.83
17607;BME280;8922;52.240;20.980;2023-02-28T09:47:11;101777.66;;;29.88;10.03
17607;BME280;8922;52.240;20.980;2023-02-28T09:49:45;101783.47;;;30.07;10.14
17607;BME280;8922;52.240;20.980;2023-02-28T09:52:18;101779.53;;;30.27;9.90
17607;BME280;8922;52.240;20.980;2023-02-28T09:54:47;101776.41;;;31.37;9.56
17607;BME280;8922;52.240;20.980;2023-02-28T09:57:21;101772.06;;;31.47;9.07
17607;BME280;8922;52.240;20.980;2023-02-28T10:00:06;101782.84;;;31.46;9.39
17607;BME280;8922;52.240;20.980;2023-02-28T10:02:53;101788.41;;;32.63;8.48
17607;BME280;8922;52.240;20.980;2023-02-28T10:05:37;101791.28;;;33.83;8.14
17607;BME280;8922;52.240;20.980;2023-02-28T10:08:14;101782.84;;;34.10;7.40
17607;BME280;8922;52.240;20.980;2023-02-28T10:10:47;101786.44;;;34.42;7.36
17607;BME280;8922;52.240;20.980;2023-02-28T10:13:25;101778.53;;;34.82;7.26
17607;BME280;8922;52.240;20.980;2023-02-28T10:15:58;101777.56;;;35.64;6.79
17607;BME280;8922;52.240;20.980;2023-02-28T10:18:41;101780.16;;;36.33;6.12
17607;BME280;8922;52.240;20.980;2023-02-28T10:21:20;101774.38;;;36.18;6.43
17607;BME280;8922;52.240;20.980;2023-02-28T10:23:50;101777.88;;;36.58;6.37
17607;BME280;8922;52.240;20.980;2023-02-28T10:26:21;101773.09;;;36.98;6.14
17607;BME280;8922;52.240;20.980;2023-02-28T10:28:51;101774.97;;;37.71;6.05
17607;BME280;8922;52.240;20.980;2023-02-28T10:31:21;101770.69;;;38.66;5.11
17607;BME280;8922;52.240;20.980;2023-02-28T10:33:52;101768.59;;;39.20;5.26
17607;BME280;8922;52.240;20.980;2023-02-28T10:36:22;101771.03;;;39.31;4.61
17607;BME280;8922;52.240;20.980;2023-02-28T10:38:51;101775.06;;;39.27;5.03
17607;BME280;8922;52.240;20.980;2023-02-28T10:41:34;101770.84;;;38.90;5.27
17607;BME280;8922;52.240;20.980;2023-02-28T10:44:23;101764.72;;;39.14;5.36
17607;BME280;8922;52.240;20.980;2023-02-28T10:46:55;101768.44;;;39.72;4.53
17607;BME280;8922;52.240;20.980;2023-02-28T10:49:28;101768.44;;;39.97;4.67
17607;BME280;8922;52.240;20.980;2023-02-28T10:52:07;101763.72;;;39.82;4.22
17607;BME280;8922;52.240;20.980;2023-02-28T10:54:40;101759.66;;;39.70;4.39
17607;BME280;8922;52.240;20.980;2023-02-28T10:57:20;101746.94;;;39.30;4.61
17607;BME280;8922;52.240;20.980;2023-02-28T11:00:12;101745.03;;;39.22;4.28
17607;BME280;8922;52.240;20.980;2023-02-28T11:02:47;101751.06;;;39.16;4.24
17607;BME280;8922;52.240;20.980;2023-02-28T11:05:46;101738.34;;;38.66;4.27
17607;BME280;8922;52.240;20.980;2023-02-28T11:08:21;101734.44;;;38.08;4.61
17607;BME280;8922;52.240;20.980;2023-02-28T11:11:00;101733.06;;;38.30;4.68
17607;BME280;8922;52.240;20.980;2023-02-28T11:13:36;101728.34;;;38.84;4.83
17607;BME280;8922;52.240;20.980;2023-02-28T11:16:13;101733.53;;;38.78;3.96
17607;BME280;8922;52.240;20.980;2023-02-28T11:18:49;101726.41;;;38.69;4.55
17607;BME280;8922;52.240;20.980;2023-02-28T11:21:27;101710.69;;;39.41;4.82
17607;BME280;8922;52.240;20.980;2023-02-28T11:24:05;101712.75;;;39.79;3.90
17607;BME280;8922;52.240;20.980;2023-02-28T11:26:49;101711.41;;;40.16;3.77
17607;BME280;8922;52.240;20.980;2023-02-28T11:29:23;101708.69;;;39.92;4.37
17607;BME280;8922;52.240;20.980;2023-02-28T11:34:27;101700.13;;;38.97;4.25
17607;BME280;8922;52.240;20.980;2023-02-28T11:37:01;101695.97;;;39.19;4.59
17607;BME280;8922;52.240;20.980;2023-02-28T11:42:48;101681.53;;;39.77;3.79
17607;BME280;8922;52.240;20.980;2023-02-28T11:45:41;101684.25;;;38.85;3.92
17607;BME280;8922;52.240;20.980;2023-02-28T11:48:21;101680.22;;;38.89;4.33
17607;BME280;8922;52.240;20.980;2023-02-28T11:51:05;101685.31;;;39.17;4.33
17607;BME280;8922;52.240;20.980;2023-02-28T11:54:18;101679.53;;;38.87;4.23
17607;BME280;8922;52.240;20.980;2023-02-28T11:56:59;101673.63;;;38.50;4.43
17607;BME280;8922;52.240;20.980;2023-02-28T11:59:54;101663.53;;;38.86;4.20
17607;BME280;8922;52.240;20.980;2023-02-28T12:02:35;101670.22;;;39.32;4.21
17607;BME280;8922;52.240;20.980;2023-02-28T12:05:26;101665.84;;;40.13;3.96
17607;BME280;8922;52.240;20.980;2023-02-28T12:08:15;101665.22;;;40.59;3.30
17607;BME280;8922;52.240;20.980;2023-02-28T12:11:07;101656.19;;;40.27;4.08
17607;BME280;8922;52.240;20.980;2023-02-28T12:13:51;101662.38;;;40.36;3.88
17607;BME280;8922;52.240;20.980;2023-02-28T12:17:00;101649.66;;;41.00;3.76
17607;BME280;8922;52.240;20.980;2023-02-28T12:19:51;101648.63;;;39.98;3.27
17607;BME280;8922;52.240;20.980;2023-02-28T12:22:56;101638.19;;;38.71;4.25
17607;BME280;8922;52.240;20.980;2023-02-28T12:26:00;101643.72;;;39.20;4.33
17607;BME280;8922;52.240;20.980;2023-02-28T12:28:42;101639.72;;;39.89;3.63
17607;BME280;8922;52.240;20.980;2023-02-28T12:31:21;101633.78;;;40.18;3.53
17607;BME280;8922;52.240;20.980;2023-02-28T12:34:01;101634.94;;;40.16;3.81
17607;BME280;8922;52.240;20.980;2023-02-28T12:36:31;101633.09;;;40.16;3.56
17607;BME280;8922;52.240;20.980;2023-02-28T12:39:08;101629.44;;;39.76;4.02
17607;BME280;8922;52.240;20.980;2023-02-28T12:41:44;101630.94;;;39.79;3.98
17607;BME280;8922;52.240;20.980;2023-02-28T12:44:26;101625.00;;;39.92;3.90
17607;BME280;8922;52.240;20.980;2023-02-28T12:47:00;101617.63;;;39.53;3.72
17607;BME280;8922;52.240;20.980;2023-02-28T12:49:36;101609.88;;;39.42;3.86
17607;BME280;8922;52.240;20.980;2023-02-28T12:52:07;101610.88;;;39.49;4.10
17607;BME280;8922;52.240;20.980;2023-02-28T12:54:48;101603.75;;;39.97;3.81
17607;BME280;8922;52.240;20.980;2023-02-28T12:57:26;101612.09;;;40.35;3.63
17607;BME280;8922;52.240;20.980;2023-02-28T13:00:03;101614.38;;;40.62;3.65
17607;BME280;8922;52.240;20.980;2023-02-28T13:02:59;101614.03;;;40.88;3.69
17607;BME280;8922;52.240;20.980;2023-02-28T13:05:56;101608.59;;;40.65;3.43
17607;BME280;8922;52.240;20.980;2023-02-28T13:09:02;101604.06;;;38.96;4.11
17607;BME280;8922;52.240;20.980;2023-02-28T13:11:38;101599.03;;;37.10;4.46
17607;BME280;8922;52.240;20.980;2023-02-28T13:14:26;101602.41;;;35.34;5.64
17607;BME280;8922;52.240;20.980;2023-02-28T13:17:01;101600.72;;;34.64;6.06
17607;BME280;8922;52.240;20.980;2023-02-28T13:19:34;101601.63;;;33.38;6.03
17607;BME280;8922;52.240;20.980;2023-02-28T13:22:05;101587.13;;;30.65;6.73
17607;BME280;8922;52.240;20.980;2023-02-28T13:24:48;101598.72;;;27.48;8.48
17607;BME280;8922;52.240;20.980;2023-02-28T13:27:37;101602.34;;;24.70;10.36
17607;BME280;8922;52.240;20.980;2023-02-28T13:31:03;101607.25;;;21.89;12.18
17607;BME280;8922;52.240;20.980;2023-02-28T13:33:34;101613.47;;;19.73;13.88
17607;BME280;8922;52.240;20.980;2023-02-28T13:36:25;101612.19;;;17.77;15.42
17607;BME280;8922;52.240;20.980;2023-02-28T13:41:55;101607.38;;;14.63;18.64
17607;BME280;8922;52.240;20.980;2023-02-28T13:44:27;101607.44;;;13.48;20.22
17607;BME280;8922;52.240;20.980;2023-02-28T13:47:21;101620.66;;;12.19;21.96
17607;BME280;8922;52.240;20.980;2023-02-28T13:49:52;101616.31;;;11.23;22.95
17607;BME280;8922;52.240;20.980;2023-02-28T13:52:25;101614.38;;;10.40;24.08
17607;BME280;8922;52.240;20.980;2023-02-28T13:55:19;101608.22;;;9.77;25.13
17607;BME280;8922;52.240;20.980;2023-02-28T13:58:12;101609.22;;;9.38;25.91